KEFT Airport Information

Runway Information
Runway 02 Length 3000 ft width 75 ft
Elevation 1085 ft Threshold 0 ft Heading 22
Runway 20 Length 3000 ft Width 75 ft
Elevation 1085 ft Threshold 0 ft Heading 202
Runway 12 Length 5000 ft width 75 ft
Elevation 1062 ft Threshold 0 ft Heading 122
Runway 30 Length 5000 ft Width 75 ft
Elevation 1062 ft Threshold 0 ft Heading 302
Airport Frequencies
Type A/D Name ROCKFORD A Frequency 126 MHZ
Type AWOS Name AWOS 3 Frequency 118.375 MHZ
Type UNIC Name CTAF/UNICO Frequency 123.05 MHZ
Airport Navaids
Airport Weather Information & NOTAM
ADDS - METARS form results

(1756 UTC 22 January 2021)
Data provider http://aviationweather.gov/metar/data/
 
METAR text: KEFT 221755Z AUTO 29008KT 10SM CLR M10/M19 A3014 RMK AO2 T11001188 11100 21140
Conditions at: KEFT (MONROE , WI, US) observed 1755 UTC 22 January 2021
Temperature: -10.0°C (14°F)
Dewpoint: -18.8°C (-2°F) [RH = 49%]
Pressure (altimeter): 30.14 inches Hg (1020.7 mb)
Winds: from the WNW (290 degrees) at 9 MPH (8 knots; 4.1 m/s)
Visibility: 10 or more miles (16+ km)
Ceiling: at least 12,000 feet AGL
Clouds: sky clear below 12,000 feet AGL
Weather: automated observation with no human augmentation;
there may or may not be significant weather present at this time

METAR text: KEFT 221735Z AUTO 29008KT 10SM CLR M10/M18 A3014 RMK AO2 T11031184
Conditions at: KEFT (MONROE , WI, US) observed 1735 UTC 22 January 2021
Temperature: -10.3°C (13°F)
Dewpoint: -18.4°C (-1°F) [RH = 51%]
Pressure (altimeter): 30.14 inches Hg (1020.7 mb)
Winds: from the WNW (290 degrees) at 9 MPH (8 knots; 4.1 m/s)
Visibility: 10 or more miles (16+ km)
Ceiling: at least 12,000 feet AGL
Clouds: sky clear below 12,000 feet AGL
Weather: automated observation with no human augmentation;
there may or may not be significant weather present at this time

METAR text: KEFT 221715Z AUTO 29007KT 10SM CLR M10/M19 A3015 RMK AO2 T11041186
Conditions at: KEFT (MONROE , WI, US) observed 1715 UTC 22 January 2021
Temperature: -10.4°C (13°F)
Dewpoint: -18.6°C (-1°F) [RH = 51%]
Pressure (altimeter): 30.15 inches Hg (1021.1 mb)
Winds: from the WNW (290 degrees) at 8 MPH (7 knots; 3.6 m/s)
Visibility: 10 or more miles (16+ km)
Ceiling: at least 12,000 feet AGL
Clouds: sky clear below 12,000 feet AGL
Weather: automated observation with no human augmentation;
there may or may not be significant weather present at this time